createdAt,value
2022-09-21T00:00:51.837Z,97116.94
2022-09-21T00:03:18.460Z,97114.28
2022-09-21T00:05:45.468Z,97115.09
2022-09-21T00:08:14.063Z,97115.41
2022-09-21T00:10:40.763Z,97120.09
2022-09-21T00:13:08.819Z,97107.22
2022-09-21T00:15:35.163Z,97118.88
2022-09-21T00:18:01.751Z,97115.63
2022-09-21T00:20:28.927Z,97110.66
2022-09-21T00:22:55.230Z,97110.69
2022-09-21T00:25:21.574Z,97107.34
2022-09-21T00:27:51.452Z,97118.44
2022-09-21T00:30:18.259Z,97116.22
2022-09-21T00:32:44.609Z,97107.47
2022-09-21T00:35:11.218Z,97110.94
2022-09-21T00:37:37.504Z,97111.63
2022-09-21T00:40:04.719Z,97108.47
2022-09-21T00:42:34.080Z,97108.72
2022-09-21T00:45:00.744Z,97104.28
2022-09-21T00:47:39.455Z,97099.72
2022-09-21T00:50:11.750Z,97104.53
2022-09-21T00:52:42.190Z,97100.41
2022-09-21T00:55:19.130Z,97105.38
2022-09-21T00:57:49.261Z,97104.00
2022-09-21T01:00:15.544Z,97100.13
2022-09-21T01:02:42.592Z,97105.66
2022-09-21T01:05:10.645Z,97103.88
2022-09-21T01:07:41.331Z,97104.28
2022-09-21T01:10:12.323Z,97103.56
2022-09-21T01:12:51.884Z,97101.22
2022-09-21T01:15:45.175Z,97105.34
2022-09-21T01:18:18.298Z,97103.69
2022-09-21T01:21:03.320Z,97112.41
2022-09-21T01:23:33.486Z,97109.31
2022-09-21T01:26:18.204Z,97110.81
2022-09-21T01:29:12.400Z,97106.63
2022-09-21T01:31:44.679Z,97110.53
2022-09-21T01:34:17.324Z,97113.56
2022-09-21T01:36:47.679Z,97115.94
2022-09-21T01:39:16.569Z,97112.28
2022-09-21T01:41:45.815Z,97106.88
2022-09-21T01:44:34.835Z,97106.94
2022-09-21T01:47:03.876Z,97113.66
2022-09-21T01:49:36.456Z,97108.44
2022-09-21T01:52:13.797Z,97111.22
2022-09-21T01:54:47.158Z,97104.25
2022-09-21T01:57:38.696Z,97102.00
2022-09-21T02:00:06.858Z,97100.44
2022-09-21T02:02:41.085Z,97100.84
2022-09-21T02:05:07.962Z,97095.84
2022-09-21T02:07:35.546Z,97098.38
2022-09-21T02:10:03.997Z,97096.03
2022-09-21T02:12:33.286Z,97101.41
2022-09-21T02:15:01.288Z,97098.91
2022-09-21T02:17:44.539Z,97093.59
2022-09-21T02:20:19.381Z,97085.03
2022-09-21T02:22:59.858Z,97088.94
2022-09-21T02:25:47.252Z,97087.41
2022-09-21T02:28:33.937Z,97087.06
2022-09-21T02:31:27.424Z,97084.28
2022-09-21T02:34:03.412Z,97091.47
2022-09-21T02:37:04.845Z,97088.88
2022-09-21T02:39:52.376Z,97082.69
2022-09-21T02:42:29.596Z,97089.53
2022-09-21T02:45:03.235Z,97080.56
2022-09-21T02:47:36.085Z,97080.50
2022-09-21T02:50:20.079Z,97085.19
2022-09-21T02:52:46.726Z,97081.22
2022-09-21T02:55:15.602Z,97086.88
2022-09-21T02:57:42.823Z,97080.63
2022-09-21T03:00:10.191Z,97083.22
2022-09-21T03:02:41.966Z,97083.16
2022-09-21T03:05:10.375Z,97082.78
2022-09-21T03:07:36.665Z,97088.06
2022-09-21T03:10:04.273Z,97081.97
2022-09-21T03:12:30.970Z,97087.06
2022-09-21T03:14:57.294Z,97089.44
2022-09-21T03:17:23.631Z,97085.19
2022-09-21T03:19:50.121Z,97081.97
2022-09-21T03:22:17.829Z,97079.56
2022-09-21T03:24:46.774Z,97089.53
2022-09-21T03:27:14.649Z,97080.31
2022-09-21T03:29:41.698Z,97080.25
2022-09-21T03:32:08.026Z,97084.59
2022-09-21T03:34:34.384Z,97087.44
2022-09-21T03:37:02.705Z,97086.09
2022-09-21T03:39:29.739Z,97091.59
2022-09-21T03:41:56.793Z,97088.94
2022-09-21T03:44:23.896Z,97088.66
2022-09-21T03:46:53.478Z,97085.78
2022-09-21T03:49:19.998Z,97090.81
2022-09-21T03:51:46.335Z,97098.69
2022-09-21T03:54:12.740Z,97090.34
2022-09-21T03:56:39.260Z,97087.28
2022-09-21T03:59:08.595Z,97091.94
2022-09-21T04:01:38.482Z,97093.28
2022-09-21T04:04:04.968Z,97094.13
2022-09-21T04:06:31.251Z,97099.28
2022-09-21T04:08:57.570Z,97096.44
2022-09-21T04:11:24.571Z,97097.75
2022-09-21T04:13:56.887Z,97095.28
2022-09-21T04:16:27.054Z,97088.06
2022-09-21T04:18:53.478Z,97095.06
2022-09-21T04:21:21.585Z,97095.41
2022-09-21T04:23:49.580Z,97097.56
2022-09-21T04:26:35.251Z,97097.53
2022-09-21T04:29:02.553Z,97104.06
2022-09-21T04:31:30.139Z,97093.59
2022-09-21T04:33:58.335Z,97094.75
2022-09-21T04:36:26.282Z,97099.13
2022-09-21T04:38:52.572Z,97098.72
2022-09-21T04:41:19.069Z,97091.00
2022-09-21T04:43:47.340Z,97104.13
2022-09-21T04:46:16.226Z,97096.97
2022-09-21T04:48:42.730Z,97101.84
2022-09-21T04:51:10.399Z,97099.09
2022-09-21T04:53:38.679Z,97102.44
2022-09-21T04:56:06.128Z,97095.88
2022-09-21T04:58:33.269Z,97099.13
2022-09-21T05:00:59.957Z,97101.59
2022-09-21T05:03:26.802Z,97109.97
2022-09-21T05:05:56.449Z,97108.16
2022-09-21T05:08:43.500Z,97103.88
2022-09-21T05:11:15.769Z,97104.00
2022-09-21T05:13:42.638Z,97111.97
2022-09-21T05:16:09.674Z,97108.66
2022-09-21T05:18:36.350Z,97110.91
2022-09-21T05:21:04.419Z,97120.19
2022-09-21T05:23:31.296Z,97119.47
2022-09-21T05:25:59.058Z,97123.88
2022-09-21T05:28:26.821Z,97118.28
2022-09-21T05:31:16.639Z,97125.06
2022-09-21T05:34:07.683Z,97126.22
2022-09-21T05:36:52.260Z,97124.13
2022-09-21T05:39:19.944Z,97120.91
2022-09-21T05:41:46.489Z,97129.00
2022-09-21T05:44:14.354Z,97128.06
2022-09-21T05:47:06.705Z,97129.25
2022-09-21T05:49:51.633Z,97136.75
2022-09-21T05:52:32.972Z,97137.97
2022-09-21T05:55:10.582Z,97141.28
2022-09-21T05:57:45.611Z,97137.34
2022-09-21T06:00:15.879Z,97151.38
2022-09-21T06:03:18.992Z,97145.00
2022-09-21T06:05:45.550Z,97135.31
2022-09-21T06:08:11.849Z,97141.38
2022-09-21T06:10:38.182Z,97138.66
2022-09-21T06:13:04.518Z,97133.31
2022-09-21T06:15:30.870Z,97144.84
2022-09-21T06:17:58.577Z,97145.81
2022-09-21T06:20:25.063Z,97137.91
2022-09-21T06:22:51.547Z,97138.63
2022-09-21T06:25:20.121Z,97142.41
2022-09-21T06:27:46.614Z,97136.19
2022-09-21T06:30:13.054Z,97143.91
2022-09-21T06:32:39.381Z,97140.72
2022-09-21T06:35:06.238Z,97140.44
2022-09-21T06:37:32.547Z,97145.81
2022-09-21T06:39:59.183Z,97138.75
2022-09-21T06:42:27.585Z,97135.56
2022-09-21T06:44:53.869Z,97135.78
2022-09-21T06:47:20.169Z,97136.84
2022-09-21T06:49:46.483Z,97136.72
2022-09-21T06:52:12.785Z,97141.25
2022-09-21T06:54:39.568Z,97146.75
2022-09-21T06:57:05.931Z,97141.50
2022-09-21T06:59:32.255Z,97145.75
2022-09-21T07:01:58.813Z,97138.13
2022-09-21T07:04:25.457Z,97147.19
2022-09-21T07:06:51.870Z,97143.56
2022-09-21T07:12:06.993Z,97144.09
2022-09-21T07:14:33.562Z,97140.50
2022-09-21T07:16:59.936Z,97141.84
2022-09-21T07:19:26.708Z,97141.97
2022-09-21T07:21:54.453Z,97140.75
2022-09-21T07:24:20.776Z,97143.34
2022-09-21T07:26:47.078Z,97144.78
2022-09-21T07:29:13.371Z,97140.41
2022-09-21T07:31:39.737Z,97139.69
2022-09-21T07:34:06.071Z,97149.38
2022-09-21T07:36:32.382Z,97143.72
2022-09-21T07:38:58.851Z,97135.91
2022-09-21T07:41:25.158Z,97143.56
2022-09-21T07:43:53.138Z,97143.72
2022-09-21T07:46:20.712Z,97140.94
2022-09-21T07:48:47.493Z,97146.91
2022-09-21T07:51:15.145Z,97141.88
2022-09-21T07:53:44.566Z,97132.75
2022-09-21T07:56:17.657Z,97145.50
2022-09-21T07:59:02.937Z,97140.84
2022-09-21T08:01:30.797Z,97148.03
2022-09-21T08:03:58.358Z,97143.66
2022-09-21T08:06:27.302Z,97141.59
2022-09-21T08:08:57.537Z,97140.78
2022-09-21T08:11:25.824Z,97139.66
2022-09-21T08:13:54.196Z,97140.91
2022-09-21T08:16:21.029Z,97137.25
2022-09-21T08:18:47.443Z,97132.56
2022-09-21T08:21:14.019Z,97127.69
2022-09-21T08:23:40.498Z,97126.38
2022-09-21T08:26:07.740Z,97122.94
2022-09-21T08:28:36.183Z,97131.00
2022-09-21T08:31:08.536Z,97129.97
2022-09-21T08:33:35.047Z,97138.44
2022-09-21T08:36:02.301Z,97132.34
2022-09-21T08:38:34.608Z,97136.59
2022-09-21T08:41:02.561Z,97127.63
2022-09-21T08:43:36.686Z,97138.88
2022-09-21T08:46:10.452Z,97135.69
2022-09-21T08:48:42.828Z,97126.13
2022-09-21T08:51:15.010Z,97132.94
2022-09-21T08:53:47.322Z,97128.47
2022-09-21T08:56:15.636Z,97139.34
2022-09-21T08:58:43.399Z,97127.50
2022-09-21T09:01:39.188Z,97121.16
2022-09-21T09:04:50.518Z,97131.44
2022-09-21T09:07:40.296Z,97122.28
2022-09-21T09:10:39.147Z,97115.91
2022-09-21T09:13:53.882Z,97119.38
2022-09-21T09:16:30.102Z,97115.91
2022-09-21T09:19:20.209Z,97122.03
2022-09-21T09:21:47.109Z,97113.84
2022-09-21T09:24:24.616Z,97113.97
2022-09-21T09:27:09.469Z,97113.00
2022-09-21T09:30:05.736Z,97107.63
2022-09-21T09:32:40.828Z,97102.22
2022-09-21T09:35:22.216Z,97096.09
2022-09-21T09:37:50.105Z,97099.97
2022-09-21T09:40:24.171Z,97093.44
2022-09-21T09:43:05.061Z,97092.84
2022-09-21T09:45:48.314Z,97078.75
2022-09-21T09:48:54.411Z,97090.53
2022-09-21T09:51:20.938Z,97075.63
2022-09-21T09:53:47.246Z,97073.91
2022-09-21T09:56:14.756Z,97073.53
2022-09-21T09:58:50.848Z,97069.06
2022-09-21T10:01:42.616Z,97067.44
2022-09-21T10:04:14.849Z,97063.25
2022-09-21T10:06:46.136Z,97055.88
2022-09-21T10:09:26.325Z,97056.34
2022-09-21T10:11:57.184Z,97049.53
2022-09-21T10:14:26.845Z,97047.56
2022-09-21T10:16:56.108Z,97044.34
2022-09-21T10:19:27.374Z,97046.16
2022-09-21T10:22:01.337Z,97044.06
2022-09-21T10:24:33.416Z,97041.88
2022-09-21T10:27:15.091Z,97042.91
2022-09-21T10:29:47.076Z,97031.94
2022-09-21T10:32:14.773Z,97039.22
2022-09-21T10:34:59.563Z,97033.00
2022-09-21T10:37:41.082Z,97033.81
2022-09-21T10:40:19.825Z,97019.19
2022-09-21T10:43:05.969Z,97020.44
2022-09-21T10:45:36.985Z,97020.78
2022-09-21T10:48:08.553Z,97018.88
2022-09-21T10:50:40.952Z,97018.81
2022-09-21T10:53:09.932Z,97015.63
2022-09-21T10:55:58.479Z,97017.81
2022-09-21T10:58:32.472Z,97019.75
2022-09-21T11:01:20.756Z,97012.56
2022-09-21T11:04:25.257Z,97014.41
2022-09-21T11:07:02.320Z,97008.78
2022-09-21T11:09:40.784Z,97012.34
2022-09-21T11:12:23.364Z,97006.25
2022-09-21T11:14:53.055Z,97012.91
2022-09-21T11:17:47.292Z,97007.94
2022-09-21T11:20:27.940Z,97005.94
2022-09-21T11:23:17.838Z,96996.63
2022-09-21T11:25:54.147Z,96996.41
2022-09-21T11:28:40.785Z,96991.13
2022-09-21T11:31:32.144Z,96991.13
2022-09-21T11:34:25.148Z,96978.25
2022-09-21T11:37:20.535Z,96984.91
2022-09-21T11:40:04.991Z,96976.09
2022-09-21T11:42:40.540Z,96973.94
2022-09-21T11:45:52.541Z,96975.94
2022-09-21T11:48:37.703Z,96982.22
2022-09-21T11:51:09.865Z,96975.94
2022-09-21T11:53:56.239Z,96976.28
2022-09-21T11:57:01.428Z,96972.28
2022-09-21T12:00:00.199Z,96967.31
2022-09-21T12:02:36.340Z,96960.50
2022-09-21T12:05:24.185Z,96954.47
2022-09-21T12:08:10.995Z,96957.28
2022-09-21T12:11:14.989Z,96957.81
2022-09-21T12:14:01.274Z,96958.44
2022-09-21T12:16:55.815Z,96966.91
2022-09-21T12:19:40.338Z,96953.88
2022-09-21T12:22:13.669Z,96953.94
2022-09-21T12:24:56.696Z,96940.78
2022-09-21T12:27:32.050Z,96946.00
2022-09-21T12:30:04.337Z,96944.06
2022-09-21T12:32:49.549Z,96937.50
2022-09-21T12:35:24.132Z,96940.75
2022-09-21T12:38:01.398Z,96933.16
2022-09-21T12:40:37.461Z,96927.44
2022-09-21T12:43:21.498Z,96931.72
2022-09-21T12:45:55.139Z,96925.22
2022-09-21T12:48:35.285Z,96915.72
2022-09-21T12:51:16.277Z,96917.75
2022-09-21T12:53:50.813Z,96915.59
2022-09-21T12:56:35.563Z,96921.53
2022-09-21T12:59:18.403Z,96923.16
2022-09-21T13:01:57.165Z,96920.88
2022-09-21T13:04:45.319Z,96916.31
2022-09-21T13:07:33.461Z,96921.47
2022-09-21T13:10:07.503Z,96908.44
2022-09-21T13:12:40.966Z,96914.03
2022-09-21T13:15:21.895Z,96898.06
2022-09-21T13:17:59.212Z,96911.00
2022-09-21T13:20:26.352Z,96901.44
2022-09-21T13:23:02.789Z,96910.19
2022-09-21T13:25:32.493Z,96900.41
2022-09-21T13:28:22.558Z,96903.03
2022-09-21T13:31:30.226Z,96901.97
2022-09-21T13:34:16.079Z,96897.88
2022-09-21T13:36:43.208Z,96897.25
2022-09-21T13:39:09.748Z,96890.28
2022-09-21T13:41:59.062Z,96888.59
2022-09-21T13:44:43.788Z,96880.72
2022-09-21T13:47:11.985Z,96888.13
2022-09-21T13:50:00.630Z,96886.97
2022-09-21T13:52:33.737Z,96899.53
2022-09-21T13:55:04.093Z,96896.69
2022-09-21T13:57:37.425Z,96896.09
2022-09-21T14:00:12.815Z,96892.31
2022-09-21T14:02:46.927Z,96894.38
2022-09-21T14:05:31.685Z,96896.75
2022-09-21T14:08:19.181Z,96891.38
2022-09-21T14:10:56.684Z,96890.88
2022-09-21T14:13:36.839Z,96887.56
2022-09-21T14:16:34.276Z,96885.88
2022-09-21T14:19:02.139Z,96889.91
2022-09-21T14:21:29.742Z,96888.28
2022-09-21T14:24:19.829Z,96886.50
2022-09-21T14:27:10.358Z,96891.19
2022-09-21T14:29:52.914Z,96884.94
2022-09-21T14:32:23.513Z,96891.38
2022-09-21T14:34:53.545Z,96889.78
2022-09-21T14:37:33.175Z,96896.66
2022-09-21T14:40:05.697Z,96897.34
2022-09-21T14:42:32.844Z,96890.84
2022-09-21T14:45:03.482Z,96891.41
2022-09-21T14:47:44.145Z,96887.91
2022-09-21T14:50:22.700Z,96893.16
2022-09-21T14:53:03.536Z,96891.59
2022-09-21T14:55:42.596Z,96884.53
2022-09-21T14:58:24.111Z,96889.09
2022-09-21T15:00:51.226Z,96885.09
2022-09-21T15:04:02.459Z,96880.00
2022-09-21T15:07:00.911Z,96883.66
2022-09-21T15:09:49.348Z,96890.88
2022-09-21T15:12:20.777Z,96886.84
2022-09-21T15:14:55.879Z,96885.00
2022-09-21T15:17:27.184Z,96883.44
2022-09-21T15:19:59.279Z,96874.56
2022-09-21T15:22:27.411Z,96884.66
2022-09-21T15:24:59.243Z,96882.88
2022-09-21T15:27:33.628Z,96882.63
2022-09-21T15:30:03.910Z,96883.19
2022-09-21T15:32:46.763Z,96887.50
2022-09-21T15:35:17.370Z,96890.59
2022-09-21T15:37:45.636Z,96893.81
2022-09-21T15:40:25.591Z,96894.78
2022-09-21T15:43:11.268Z,96894.59
2022-09-21T15:45:46.444Z,96894.69
2022-09-21T15:48:13.475Z,96890.56
2022-09-21T15:50:42.921Z,96884.09
2022-09-21T15:53:18.642Z,96887.69
2022-09-21T15:55:49.350Z,96894.72
2022-09-21T15:58:45.802Z,96888.91
2022-09-21T16:01:16.823Z,96892.63
2022-09-21T16:03:46.341Z,96905.13
2022-09-21T16:06:24.755Z,96900.78
2022-09-21T16:08:51.601Z,96908.13
2022-09-21T16:11:18.745Z,96899.25
2022-09-21T16:14:05.949Z,96906.50
2022-09-21T16:16:32.724Z,96913.66
2022-09-21T16:19:02.016Z,96906.25
2022-09-21T16:21:32.278Z,96909.66
2022-09-21T16:24:09.897Z,96911.00
2022-09-21T16:26:38.770Z,96910.31
2022-09-21T16:29:26.777Z,96920.47
2022-09-21T16:32:17.985Z,96918.19
2022-09-21T16:34:46.163Z,96919.69
2022-09-21T16:37:24.615Z,96916.44
2022-09-21T16:39:52.834Z,96918.41
2022-09-21T16:42:20.050Z,96923.94
2022-09-21T16:44:47.368Z,96922.66
2022-09-21T16:47:27.985Z,96922.44
2022-09-21T16:50:00.071Z,96923.94
2022-09-21T16:52:28.219Z,96937.59
2022-09-21T16:54:56.489Z,96931.38
2022-09-21T16:57:23.820Z,96940.78
2022-09-21T16:59:50.505Z,96931.97
2022-09-21T17:02:17.962Z,96930.41
2022-09-21T17:04:44.830Z,96950.09
2022-09-21T17:07:13.286Z,96945.31
2022-09-21T17:09:44.315Z,96942.81
2022-09-21T17:12:15.410Z,96946.72
2022-09-21T17:14:46.644Z,96950.16
2022-09-21T17:17:17.932Z,96950.66
2022-09-21T17:19:46.831Z,96947.63
2022-09-21T17:22:19.766Z,96948.19
2022-09-21T17:24:51.381Z,96953.13
2022-09-21T17:27:21.246Z,96954.97
2022-09-21T17:29:49.381Z,96955.50
2022-09-21T17:32:20.586Z,96959.63
2022-09-21T17:34:53.705Z,96953.50
2022-09-21T17:37:20.010Z,96954.94
2022-09-21T17:39:47.338Z,96961.47
2022-09-21T17:42:22.976Z,96967.84
2022-09-21T17:45:03.292Z,96969.63
2022-09-21T17:47:32.501Z,96968.88
2022-09-21T17:50:16.230Z,96970.34
2022-09-21T17:53:02.589Z,96971.22
2022-09-21T17:55:30.691Z,96975.06
2022-09-21T17:58:36.410Z,96980.72
2022-09-21T18:01:36.065Z,96986.25
2022-09-21T18:04:03.993Z,96983.66
2022-09-21T18:06:31.581Z,96989.97
2022-09-21T18:08:58.327Z,96984.28
2022-09-21T18:11:30.852Z,96988.84
2022-09-21T18:14:28.232Z,96989.16
2022-09-21T18:17:32.792Z,96997.44
2022-09-21T18:20:24.763Z,96988.53
2022-09-21T18:23:14.684Z,96994.97
2022-09-21T18:25:50.278Z,96995.66
2022-09-21T18:28:40.054Z,97001.81
2022-09-21T18:31:42.133Z,97004.09
2022-09-21T18:34:34.945Z,97006.78
2022-09-21T18:37:12.761Z,97009.56
2022-09-21T18:40:02.639Z,97006.91
2022-09-21T18:43:06.931Z,97012.88
2022-09-21T18:45:43.619Z,97014.50
2022-09-21T18:48:50.835Z,97006.91
2022-09-21T18:51:27.371Z,97005.59
2022-09-21T18:53:56.454Z,97005.59
2022-09-21T18:56:25.095Z,97010.44
2022-09-21T18:58:52.231Z,97022.78
2022-09-21T19:01:21.886Z,97020.69
2022-09-21T19:03:49.643Z,97019.31
2022-09-21T19:06:23.318Z,97026.78
2022-09-21T19:09:02.791Z,97021.81
2022-09-21T19:11:43.327Z,97024.66
2022-09-21T19:14:34.555Z,97025.69
2022-09-21T19:17:29.506Z,97019.44
2022-09-21T19:20:15.532Z,97020.06
2022-09-21T19:23:17.031Z,97027.06
2022-09-21T19:25:49.546Z,97021.97
2022-09-21T19:28:28.965Z,97031.38
2022-09-21T19:31:01.558Z,97027.28
2022-09-21T19:33:49.552Z,97019.72
2022-09-21T19:36:17.731Z,97021.84
2022-09-21T19:38:44.334Z,97013.69
2022-09-21T19:41:32.373Z,97018.84
2022-09-21T19:44:45.742Z,97023.97
2022-09-21T19:47:31.877Z,97025.28
2022-09-21T19:50:12.762Z,97028.19
2022-09-21T19:52:39.595Z,97020.81
2022-09-21T19:55:31.720Z,97020.19
2022-09-21T19:58:17.118Z,97029.66
2022-09-21T20:00:44.824Z,97024.38
2022-09-21T20:03:25.219Z,97020.13
2022-09-21T20:06:24.740Z,97021.50
2022-09-21T20:09:10.576Z,97024.97
2022-09-21T20:11:56.548Z,97026.91
2022-09-21T20:14:31.497Z,97016.66
2022-09-21T20:17:04.415Z,97020.31
2022-09-21T20:19:39.942Z,97016.81
2022-09-21T20:22:17.762Z,97017.50
2022-09-21T20:25:02.275Z,97017.16
2022-09-21T20:27:40.012Z,97016.63
2022-09-21T20:30:09.959Z,97016.28
2022-09-21T20:32:39.046Z,97008.81
2022-09-21T20:35:15.167Z,97011.03
2022-09-21T20:37:42.180Z,97011.19
2022-09-21T20:40:09.597Z,97013.81
2022-09-21T20:42:38.941Z,97013.81
2022-09-21T20:45:08.955Z,97016.03
2022-09-21T20:47:35.726Z,97022.25
2022-09-21T20:50:03.364Z,97017.94
2022-09-21T20:52:30.257Z,97019.25
2022-09-21T20:54:56.654Z,97014.59
2022-09-21T20:57:23.257Z,97021.78
2022-09-21T20:59:49.616Z,97014.69
2022-09-21T21:02:16.654Z,97014.59
2022-09-21T21:04:43.108Z,97020.16
2022-09-21T21:07:09.913Z,97018.19
2022-09-21T21:09:36.308Z,97012.91
2022-09-21T21:12:02.750Z,97013.19
2022-09-21T21:14:29.819Z,97015.13
2022-09-21T21:16:56.359Z,97011.91
2022-09-21T21:19:23.175Z,97021.00
2022-09-21T21:21:49.630Z,97016.41
2022-09-21T21:24:34.769Z,97016.66
2022-09-21T21:27:02.842Z,97014.25
2022-09-21T21:29:30.740Z,97015.66
2022-09-21T21:31:57.277Z,97019.16
2022-09-21T21:34:23.868Z,97015.28
2022-09-21T21:36:50.232Z,97022.97
2022-09-21T21:39:16.674Z,97013.84
2022-09-21T21:41:43.485Z,97021.69
2022-09-21T21:44:11.479Z,97011.25
2022-09-21T21:46:38.010Z,97015.91
2022-09-21T21:49:04.796Z,97021.59
2022-09-21T21:51:31.506Z,97021.06
2022-09-21T21:53:57.901Z,97023.59
2022-09-21T21:56:24.246Z,97024.97
2022-09-21T21:58:55.003Z,97023.31
2022-09-21T22:01:29.171Z,97024.97
2022-09-21T22:04:02.751Z,97020.41
2022-09-21T22:06:34.105Z,97023.72
2022-09-21T22:09:01.765Z,97021.19
2022-09-21T22:11:29.047Z,97017.19
2022-09-21T22:13:55.580Z,97016.91
2022-09-21T22:16:24.056Z,97015.81
2022-09-21T22:18:52.107Z,97018.84
2022-09-21T22:21:21.655Z,97013.59
2022-09-21T22:23:59.051Z,97014.41
2022-09-21T22:26:27.119Z,97010.78
2022-09-21T22:28:56.746Z,97016.84
2022-09-21T22:31:29.011Z,97011.31
2022-09-21T22:33:56.082Z,97002.91
2022-09-21T22:36:28.918Z,97003.59
2022-09-21T22:38:55.963Z,97004.28
2022-09-21T22:41:27.780Z,97001.38
2022-09-21T22:43:55.450Z,97004.72
2022-09-21T22:46:23.191Z,97009.44
2022-09-21T22:48:49.845Z,97005.81
2022-09-21T22:51:17.862Z,97004.44
2022-09-21T22:53:44.862Z,97011.56
2022-09-21T22:56:13.455Z,97005.63
2022-09-21T22:58:44.987Z,97010.44
2022-09-21T23:01:41.178Z,97002.28
2022-09-21T23:04:13.137Z,97009.84
2022-09-21T23:06:42.347Z,97014.16
2022-09-21T23:09:13.679Z,97014.31
2022-09-21T23:11:47.416Z,97010.63
2022-09-21T23:14:17.539Z,97011.59
2022-09-21T23:16:44.283Z,97008.91
2022-09-21T23:19:15.426Z,97003.34
2022-09-21T23:21:49.322Z,97003.78
2022-09-21T23:24:15.840Z,97012.69
2022-09-21T23:26:44.997Z,97010.22
2022-09-21T23:29:14.930Z,97005.59
2022-09-21T23:31:45.093Z,97008.00
2022-09-21T23:34:12.606Z,97003.41
2022-09-21T23:36:40.262Z,97005.50
2022-09-21T23:39:09.478Z,97010.13
2022-09-21T23:41:36.413Z,97004.72
2022-09-21T23:44:03.979Z,97003.41
2022-09-21T23:46:33.526Z,97000.41
2022-09-21T23:49:00.852Z,96997.22
2022-09-21T23:51:27.985Z,97000.94
2022-09-21T23:53:54.297Z,96999.19
2022-09-21T23:56:22.749Z,96994.66
2022-09-21T23:58:49.998Z,97003.72
